Time;durP1;ratioP1;P1;durP2;ratioP2;P2;SDS_P1;SDS_P2;PMS_P1;PMS_P2;Temp;Humidity;BMP_temperature;BMP_pressure;BME280_temperature;BME280_humidity;BME280_pressure;Samples;Min_cycle;Max_cycle;Signal;HPM_P1;HPM_P2
2021/05/18 00:01:59;;;;;;;12.77;10.02;;;;;;;;;;4992771;28;20054;-63
2021/05/18 00:04:45;;;;;;;14.05;10.77;;;;;;;;;;4993440;28;20489;-64
2021/05/18 00:07:30;;;;;;;14.95;11.02;;;;;;;;;;4992464;28;20054;-64
2021/05/18 00:13:20;;;;;;;18.25;11.43;;;;;;;;;;5011907;28;20061;-64
2021/05/18 00:16:06;;;;;;;19.88;11.85;;;;;;;;;;5012049;28;20515;-64
2021/05/18 00:18:51;;;;;;;13.98;11.38;;;;;;;;;;4998477;28;20045;-64
2021/05/18 00:21:37;;;;;;;18.50;12.60;;;;;;;;;;5010221;28;20381;-64
2021/05/18 00:24:22;;;;;;;17.70;12.43;;;;;;;;;;4992650;28;20075;-64
2021/05/18 00:27:08;;;;;;;17.20;11.98;;;;;;;;;;5005867;28;20082;-63
2021/05/18 00:29:53;;;;;;;16.50;12.93;;;;;;;;;;4993825;28;20482;-63
2021/05/18 00:32:39;;;;;;;18.40;13.20;;;;;;;;;;4997236;28;20081;-64
2021/05/18 00:35:25;;;;;;;16.90;12.38;;;;;;;;;;4996180;28;20054;-64
2021/05/18 00:38:10;;;;;;;15.57;12.07;;;;;;;;;;4996041;28;20058;-64
2021/05/18 00:40:55;;;;;;;17.77;12.00;;;;;;;;;;4996892;28;20065;-64
2021/05/18 00:43:41;;;;;;;20.23;12.63;;;;;;;;;;4995947;28;20073;-64
2021/05/18 00:46:28;;;;;;;19.08;12.43;;;;;;;;;;4988398;28;20041;-64
2021/05/18 00:49:14;;;;;;;15.75;11.77;;;;;;;;;;5015141;28;20100;-64
2021/05/18 00:52:05;;;;;;;19.88;13.02;;;;;;;;;;5015602;28;20046;-64
2021/05/18 00:55:05;;;;;;;18.42;13.10;;;;;;;;;;4980965;28;20050;-63
2021/05/18 01:00:57;;;;;;;16.58;11.80;;;;;;;;;;4995875;28;20046;-64
2021/05/18 01:03:42;;;;;;;17.05;12.70;;;;;;;;;;4995478;28;20053;-63
2021/05/18 01:06:28;;;;;;;16.38;11.73;;;;;;;;;;4997366;28;20094;-63
2021/05/18 01:09:15;;;;;;;14.20;11.88;;;;;;;;;;5015096;28;20067;-64
2021/05/18 01:12:00;;;;;;;19.98;12.98;;;;;;;;;;5015279;28;20166;-64
2021/05/18 01:14:45;;;;;;;16.67;12.95;;;;;;;;;;5001453;28;20053;-64
2021/05/18 01:17:30;;;;;;;18.13;13.07;;;;;;;;;;4995305;28;20516;-64
2021/05/18 01:20:16;;;;;;;22.23;12.68;;;;;;;;;;4997541;28;20078;-64
2021/05/18 01:23:02;;;;;;;17.83;13.27;;;;;;;;;;5014048;28;20428;-64
2021/05/18 01:25:47;;;;;;;19.77;12.80;;;;;;;;;;4991831;28;20058;-64
2021/05/18 01:28:33;;;;;;;17.08;12.90;;;;;;;;;;4996733;28;20505;-64
2021/05/18 01:31:22;;;;;;;22.42;14.10;;;;;;;;;;4981885;28;20054;-64
2021/05/18 01:34:08;;;;;;;22.02;13.98;;;;;;;;;;4999750;28;20052;-64
2021/05/18 01:37:00;;;;;;;21.42;14.85;;;;;;;;;;4995476;28;20042;-65
2021/05/18 01:39:58;;;;;;;21.92;13.98;;;;;;;;;;4979829;28;20112;-64
2021/05/18 01:42:54;;;;;;;27.30;15.10;;;;;;;;;;4995976;28;20137;-64
2021/05/18 01:45:41;;;;;;;29.30;15.82;;;;;;;;;;4960727;28;20047;-63
2021/05/18 01:48:27;;;;;;;28.42;15.45;;;;;;;;;;4960586;28;20051;-63
2021/05/18 01:51:12;;;;;;;27.88;16.05;;;;;;;;;;4985821;28;20140;-63
2021/05/18 01:54:00;;;;;;;28.02;16.17;;;;;;;;;;4999405;28;20054;-63
2021/05/18 01:57:04;;;;;;;25.00;15.05;;;;;;;;;;5013678;28;20081;-63
2021/05/18 01:59:55;;;;;;;21.85;14.00;;;;;;;;;;4999040;28;20058;-63
2021/05/18 02:02:43;;;;;;;23.40;14.10;;;;;;;;;;5014054;28;20050;-64
2021/05/18 02:05:34;;;;;;;22.73;15.13;;;;;;;;;;4981634;28;20054;-63
2021/05/18 02:08:39;;;;;;;19.33;12.88;;;;;;;;;;4979821;28;20209;-63
2021/05/18 02:11:32;;;;;;;24.38;14.68;;;;;;;;;;4989763;28;20407;-64
2021/05/18 02:14:24;;;;;;;29.23;15.88;;;;;;;;;;5028145;23;20051;-60
2021/05/18 02:20:21;;;;;;;24.98;15.82;;;;;;;;;;4959787;28;20509;-61
2021/05/18 02:26:18;;;;;;;31.95;15.32;;;;;;;;;;4960074;28;20066;-61
2021/05/18 02:29:09;;;;;;;22.65;12.57;;;;;;;;;;4959918;28;20107;-61
2021/05/18 02:31:56;;;;;;;24.65;15.80;;;;;;;;;;4990643;28;20046;-61
2021/05/18 02:34:59;;;;;;;19.85;13.55;;;;;;;;;;5010378;28;20129;-61
2021/05/18 02:37:46;;;;;;;30.10;16.15;;;;;;;;;;5013440;28;20108;-61
2021/05/18 02:40:33;;;;;;;57.35;20.48;;;;;;;;;;4998564;28;20045;-61
2021/05/18 02:43:24;;;;;;;36.50;16.27;;;;;;;;;;4982006;28;20042;-61
2021/05/18 02:49:18;;;;;;;28.55;10.55;;;;;;;;;;4992508;28;20492;-61
2021/05/18 02:52:03;;;;;;;26.35;11.80;;;;;;;;;;4992303;28;20046;-61
2021/05/18 02:54:52;;;;;;;35.35;14.52;;;;;;;;;;4979003;28;20054;-61
2021/05/18 02:57:38;;;;;;;40.13;12.50;;;;;;;;;;4992537;28;20054;-61
2021/05/18 03:00:24;;;;;;;35.80;16.42;;;;;;;;;;4993152;28;20575;-61
2021/05/18 03:03:09;;;;;;;59.65;21.52;;;;;;;;;;5002798;28;20045;-61
2021/05/18 03:05:55;;;;;;;41.58;19.20;;;;;;;;;;5012970;28;20046;-61
2021/05/18 03:08:41;;;;;;;54.72;24.27;;;;;;;;;;5013075;28;20053;-61
2021/05/18 03:11:26;;;;;;;47.92;22.60;;;;;;;;;;5012876;28;20054;-61
2021/05/18 03:14:11;;;;;;;45.78;22.70;;;;;;;;;;4997520;28;20055;-61
2021/05/18 03:16:56;;;;;;;55.15;23.45;;;;;;;;;;4993088;28;20051;-61
2021/05/18 03:19:42;;;;;;;50.88;23.73;;;;;;;;;;4992971;28;20470;-61
2021/05/18 03:22:28;;;;;;;47.70;22.67;;;;;;;;;;4993375;28;20046;-61
2021/05/18 03:25:16;;;;;;;51.95;24.98;;;;;;;;;;4993234;28;20050;-61
2021/05/18 03:28:01;;;;;;;55.10;23.95;;;;;;;;;;4993236;28;20055;-61
2021/05/18 03:30:53;;;;;;;48.10;22.73;;;;;;;;;;4992879;28;20043;-61
2021/05/18 03:36:43;;;;;;;45.70;21.60;;;;;;;;;;4992911;28;19922;-61
2021/05/18 03:39:29;;;;;;;45.85;21.52;;;;;;;;;;4991962;28;20050;-61
2021/05/18 03:42:33;;;;;;;49.05;22.85;;;;;;;;;;4992725;28;20050;-61
2021/05/18 03:45:28;;;;;;;43.30;21.13;;;;;;;;;;4993749;28;20093;-61
2021/05/18 03:54:42;;;;;;;35.97;19.25;;;;;;;;;;4992529;28;20120;-60
2021/05/18 04:03:48;;;;;;;38.97;20.55;;;;;;;;;;4993840;28;20456;-61
2021/05/18 04:19:11;;;;;;;32.28;18.65;;;;;;;;;;4981827;28;20551;-61
2021/05/18 04:22:14;;;;;;;29.55;18.25;;;;;;;;;;4996371;28;20400;-61
2021/05/18 04:25:21;;;;;;;30.17;18.35;;;;;;;;;;4996885;28;20046;-61
2021/05/18 04:41:00;;;;;;;30.17;19.58;;;;;;;;;;5015386;28;20065;-61
2021/05/18 05:01:52;;;;;;;23.73;16.42;;;;;;;;;;4980666;28;20488;-61
2021/05/18 05:08:04;;;;;;;25.20;16.15;;;;;;;;;;4916877;28;20053;-61
2021/05/18 05:16:38;;;;;;;20.85;16.10;;;;;;;;;;4988760;28;20054;-61
2021/05/18 05:19:28;;;;;;;19.50;15.25;;;;;;;;;;4980549;28;20046;-61
2021/05/18 05:22:14;;;;;;;21.55;15.52;;;;;;;;;;4980491;28;20054;-62
2021/05/18 05:24:59;;;;;;;17.92;13.82;;;;;;;;;;4995329;28;20050;-61
2021/05/18 05:27:44;;;;;;;17.27;14.95;;;;;;;;;;5014100;28;20046;-61
2021/05/18 05:30:30;;;;;;;21.55;13.88;;;;;;;;;;5014836;28;20400;-62
2021/05/18 05:33:15;;;;;;;18.75;14.85;;;;;;;;;;5014865;28;20111;-62
2021/05/18 05:36:00;;;;;;;17.23;13.35;;;;;;;;;;5013032;28;20054;-62
2021/05/18 05:38:48;;;;;;;17.85;13.02;;;;;;;;;;4996541;28;20102;-61
2021/05/18 05:41:33;;;;;;;17.65;13.93;;;;;;;;;;4997306;28;20093;-61
2021/05/18 05:44:19;;;;;;;15.95;13.02;;;;;;;;;;4997452;28;20754;-62
2021/05/18 05:47:04;;;;;;;18.23;13.20;;;;;;;;;;4996657;28;20052;-62
2021/05/18 05:49:50;;;;;;;14.77;12.88;;;;;;;;;;4995091;28;20050;-61
2021/05/18 05:52:35;;;;;;;18.77;14.07;;;;;;;;;;4991866;28;20049;-62
2021/05/18 05:55:21;;;;;;;15.50;12.73;;;;;;;;;;4994578;28;20076;-61
2021/05/18 05:58:06;;;;;;;15.15;12.25;;;;;;;;;;5014337;28;20057;-62
2021/05/18 06:00:51;;;;;;;20.42;13.38;;;;;;;;;;5014069;28;20046;-61
2021/05/18 06:03:37;;;;;;;17.45;13.30;;;;;;;;;;5014121;28;20125;-62
2021/05/18 06:06:22;;;;;;;15.32;13.05;;;;;;;;;;4999809;28;20132;-61
2021/05/18 06:09:09;;;;;;;16.67;13.00;;;;;;;;;;4994463;28;20408;-60
2021/05/18 06:12:01;;;;;;;14.70;13.07;;;;;;;;;;4994399;28;20125;-61
2021/05/18 06:15:13;;;;;;;16.90;13.07;;;;;;;;;;4994379;28;20140;-61
2021/05/18 06:42:29;;;;;;;13.52;11.55;;;;;;;;;;5013456;28;20049;-61
2021/05/18 06:48:18;;;;;;;16.48;12.50;;;;;;;;;;4996856;28;20119;-61
2021/05/18 06:51:03;;;;;;;14.55;11.95;;;;;;;;;;5012965;28;20042;-61
2021/05/18 06:53:48;;;;;;;16.02;12.32;;;;;;;;;;5013041;28;20171;-61
2021/05/18 06:56:36;;;;;;;14.60;11.35;;;;;;;;;;5012994;28;20049;-61
2021/05/18 07:02:07;;;;;;;12.82;10.63;;;;;;;;;;5011051;28;20129;-62
2021/05/18 07:04:54;;;;;;;14.25;12.02;;;;;;;;;;5012731;28;20042;-62
2021/05/18 07:07:40;;;;;;;12.93;11.43;;;;;;;;;;5006631;28;20042;-62
2021/05/18 07:10:26;;;;;;;13.57;12.18;;;;;;;;;;4992632;28;20058;-63
2021/05/18 07:13:11;;;;;;;14.43;11.48;;;;;;;;;;4983388;28;20508;-61
2021/05/18 07:15:56;;;;;;;10.27;8.23;;;;;;;;;;4986030;28;20047;-62
2021/05/18 07:18:42;;;;;;;10.27;9.25;;;;;;;;;;4983540;28;20031;-62
2021/05/18 07:21:27;;;;;;;15.45;11.77;;;;;;;;;;4980917;28;20050;-62
2021/05/18 07:24:19;;;;;;;11.93;9.05;;;;;;;;;;4973368;28;20047;-61
2021/05/18 07:27:04;;;;;;;12.43;9.77;;;;;;;;;;4990294;28;20121;-61
2021/05/18 07:29:49;;;;;;;11.57;9.40;;;;;;;;;;4994047;28;20050;-62
2021/05/18 07:32:35;;;;;;;8.90;8.00;;;;;;;;;;4992924;28;20054;-61
2021/05/18 07:35:20;;;;;;;10.32;7.75;;;;;;;;;;4992655;28;20046;-62
2021/05/18 07:38:06;;;;;;;8.45;7.60;;;;;;;;;;4972827;28;20122;-61
2021/05/18 07:40:51;;;;;;;9.23;7.70;;;;;;;;;;4972838;28;20117;-61
2021/05/18 07:43:37;;;;;;;8.85;7.80;;;;;;;;;;4973315;28;20054;-62
2021/05/18 07:46:23;;;;;;;8.98;7.13;;;;;;;;;;4981478;28;20125;-62
2021/05/18 07:49:15;;;;;;;8.88;7.32;;;;;;;;;;5012406;28;20046;-61
2021/05/18 08:07:22;;;;;;;7.65;5.95;;;;;;;;;;4982393;28;20047;-61
2021/05/18 08:10:18;;;;;;;6.38;5.28;;;;;;;;;;4983110;28;20046;-62
2021/05/18 08:13:03;;;;;;;6.10;4.57;;;;;;;;;;4982347;28;20042;-61
2021/05/18 08:59:00;;;;;;;7.35;6.60;;;;;;;;;;5006869;28;20046;-63
2021/05/18 09:02:24;;;;;;;7.85;6.97;;;;;;;;;;5005272;28;20050;-63
2021/05/18 09:37:27;;;;;;;4.05;3.63;;;;;;;;;;5002580;28;20613;-63
2021/05/18 10:36:39;;;;;;;6.15;5.55;;;;;;;;;;5013512;28;20065;-67
2021/05/18 10:39:26;;;;;;;9.10;5.75;;;;;;;;;;4960652;28;20043;-68
2021/05/18 10:42:12;;;;;;;6.45;5.85;;;;;;;;;;4973478;28;20780;-68
2021/05/18 10:44:57;;;;;;;4.80;4.15;;;;;;;;;;4973297;28;20490;-69
2021/05/18 10:47:46;;;;;;;12.05;6.18;;;;;;;;;;4985788;28;20038;-62
2021/05/18 10:50:43;;;;;;;4.40;3.17;;;;;;;;;;5013008;28;20046;-62
2021/05/18 10:53:29;;;;;;;4.85;4.35;;;;;;;;;;5013014;28;20133;-62
2021/05/18 10:56:15;;;;;;;7.05;6.35;;;;;;;;;;5013235;28;20086;-62
2021/05/18 10:59:00;;;;;;;7.55;6.85;;;;;;;;;;4999396;28;20062;-61
2021/05/18 11:01:45;;;;;;;8.25;7.15;;;;;;;;;;4993409;28;20408;-62
2021/05/18 11:04:35;;;;;;;8.02;7.22;;;;;;;;;;4993454;28;20058;-61
2021/05/18 11:07:22;;;;;;;7.10;6.40;;;;;;;;;;4993370;28;20099;-62
2021/05/18 11:10:08;;;;;;;8.40;7.55;;;;;;;;;;4972574;28;20526;-61
2021/05/18 11:12:54;;;;;;;7.57;6.82;;;;;;;;;;4973301;28;20413;-62
2021/05/18 11:15:39;;;;;;;8.15;7.38;;;;;;;;;;4973732;28;20091;-62
2021/05/18 11:18:31;;;;;;;8.82;8.02;;;;;;;;;;4977470;28;20149;-61
2021/05/18 11:21:16;;;;;;;8.05;7.30;;;;;;;;;;4992849;28;20090;-62
2021/05/18 11:24:11;;;;;;;8.70;7.78;;;;;;;;;;4993060;28;20066;-63
2021/05/18 11:26:56;;;;;;;8.27;7.45;;;;;;;;;;4992863;28;20492;-62
2021/05/18 11:29:43;;;;;;;7.10;6.40;;;;;;;;;;5002793;28;20042;-62
2021/05/18 11:32:29;;;;;;;7.28;6.57;;;;;;;;;;5012633;28;20129;-62
2021/05/18 11:35:14;;;;;;;7.32;6.63;;;;;;;;;;5012332;28;20053;-62
2021/05/18 11:38:04;;;;;;;7.00;5.97;;;;;;;;;;4997593;28;20519;-62
2021/05/18 11:40:50;;;;;;;8.05;7.35;;;;;;;;;;5010402;28;20046;-65
2021/05/18 11:43:39;;;;;;;6.82;6.15;;;;;;;;;;5012222;28;20045;-63
2021/05/18 11:46:24;;;;;;;5.22;4.72;;;;;;;;;;5012437;28;20046;-64
2021/05/18 11:49:13;;;;;;;7.40;5.10;;;;;;;;;;5011198;28;20112;-64
2021/05/18 11:51:59;;;;;;;6.30;5.70;;;;;;;;;;4973324;28;20047;-65
2021/05/18 11:54:45;;;;;;;4.53;4.03;;;;;;;;;;4973042;28;20050;-64
2021/05/18 11:57:31;;;;;;;3.25;2.80;;;;;;;;;;4973318;28;20051;-62
2021/05/18 12:00:37;;;;;;;2.65;2.33;;;;;;;;;;4969688;28;20058;-62
2021/05/18 12:03:22;;;;;;;4.55;3.38;;;;;;;;;;5011926;28;20500;-62
2021/05/18 12:06:08;;;;;;;4.10;3.60;;;;;;;;;;5012231;28;20046;-62
2021/05/18 12:08:57;;;;;;;2.83;2.53;;;;;;;;;;5012133;28;20093;-61
2021/05/18 12:11:43;;;;;;;2.10;1.90;;;;;;;;;;4997389;28;20125;-61
2021/05/18 12:14:28;;;;;;;12.95;3.28;;;;;;;;;;4992244;28;20043;-63
2021/05/18 12:17:14;;;;;;;12.25;4.57;;;;;;;;;;4992387;28;20050;-63
2021/05/18 12:19:59;;;;;;;9.13;5.47;;;;;;;;;;4991259;28;20496;-63
2021/05/18 12:22:44;;;;;;;9.60;5.65;;;;;;;;;;4972066;28;20050;-63
2021/05/18 12:25:36;;;;;;;8.82;6.82;;;;;;;;;;4975798;28;20091;-63
2021/05/18 12:28:21;;;;;;;5.95;5.10;;;;;;;;;;4976899;28;20046;-63
2021/05/18 12:31:07;;;;;;;9.48;6.10;;;;;;;;;;4969754;28;20037;-63
2021/05/18 12:33:53;;;;;;;7.53;5.03;;;;;;;;;;5015737;28;20053;-64
2021/05/18 12:36:48;;;;;;;7.55;5.38;;;;;;;;;;5015890;28;20050;-63
2021/05/18 12:39:33;;;;;;;7.18;5.63;;;;;;;;;;5015420;28;20500;-64
2021/05/18 12:42:28;;;;;;;7.63;5.40;;;;;;;;;;5005094;28;20050;-64
2021/05/18 12:45:17;;;;;;;8.48;4.88;;;;;;;;;;4996072;28;20054;-64
2021/05/18 12:48:03;;;;;;;8.27;5.70;;;;;;;;;;4995935;28;20054;-63
2021/05/18 12:50:51;;;;;;;7.78;5.63;;;;;;;;;;4994940;28;20050;-64
2021/05/18 12:53:36;;;;;;;6.68;6.07;;;;;;;;;;5013983;28;20046;-63
2021/05/18 12:56:32;;;;;;;5.70;5.20;;;;;;;;;;5000739;28;20136;-63
2021/05/18 12:59:17;;;;;;;5.95;5.38;;;;;;;;;;5009209;28;20077;-64
2021/05/18 13:02:03;;;;;;;6.20;5.60;;;;;;;;;;4998056;28;20060;-65
2021/05/18 13:04:48;;;;;;;6.05;5.43;;;;;;;;;;5012374;28;20054;-64
2021/05/18 13:07:33;;;;;;;4.65;4.25;;;;;;;;;;5012724;28;20042;-64
2021/05/18 13:10:23;;;;;;;6.38;5.05;;;;;;;;;;5013101;28;20041;-64
2021/05/18 13:13:09;;;;;;;5.68;4.82;;;;;;;;;;4983769;28;20233;-64
2021/05/18 13:16:08;;;;;;;6.43;5.55;;;;;;;;;;4988619;28;20129;-64
2021/05/18 13:19:10;;;;;;;5.45;4.90;;;;;;;;;;4992650;28;20073;-64
2021/05/18 13:21:57;;;;;;;5.65;5.13;;;;;;;;;;4993087;28;20529;-64
2021/05/18 13:27:55;;;;;;;6.55;5.75;;;;;;;;;;4992540;28;20416;-63
2021/05/18 13:30:40;;;;;;;6.45;5.80;;;;;;;;;;4992064;28;20062;-63
2021/05/18 13:33:26;;;;;;;7.72;5.82;;;;;;;;;;4986732;28;20144;-65
2021/05/18 13:36:14;;;;;;;6.63;5.78;;;;;;;;;;4992310;28;20513;-65
2021/05/18 13:38:59;;;;;;;6.65;6.05;;;;;;;;;;4992960;28;20054;-64
2021/05/18 13:41:48;;;;;;;6.10;5.50;;;;;;;;;;4992452;28;20050;-64
2021/05/18 13:44:33;;;;;;;5.97;5.20;;;;;;;;;;4994597;28;20062;-64
2021/05/18 13:47:18;;;;;;;6.53;4.78;;;;;;;;;;4992683;28;20079;-62
2021/05/18 13:50:03;;;;;;;6.25;5.53;;;;;;;;;;4977930;28;20046;-61
2021/05/18 13:52:48;;;;;;;5.90;5.10;;;;;;;;;;4986552;28;20046;-61
2021/05/18 13:55:35;;;;;;;6.30;5.80;;;;;;;;;;4977044;28;20051;-62
2021/05/18 13:58:20;;;;;;;5.90;5.30;;;;;;;;;;4973539;28;20054;-61
2021/05/18 14:01:06;;;;;;;5.20;4.70;;;;;;;;;;4987925;28;20394;-61
2021/05/18 14:03:54;;;;;;;5.13;4.70;;;;;;;;;;4991633;28;20043;-61
2021/05/18 14:06:49;;;;;;;4.70;4.30;;;;;;;;;;4991921;28;20515;-61
2021/05/18 14:09:35;;;;;;;5.57;5.05;;;;;;;;;;4991351;28;20050;-62
2021/05/18 14:12:21;;;;;;;5.80;5.20;;;;;;;;;;4991314;28;20389;-61
2021/05/18 14:15:06;;;;;;;5.38;4.85;;;;;;;;;;4994413;28;20046;-62
2021/05/18 14:17:51;;;;;;;5.28;4.78;;;;;;;;;;5011135;28;20060;-61
2021/05/18 14:20:37;;;;;;;5.63;5.10;;;;;;;;;;5038646;23;20054;-63
2021/05/18 14:23:23;;;;;;;5.82;5.28;;;;;;;;;;4992101;28;20504;-64
2021/05/18 14:26:09;;;;;;;4.35;3.85;;;;;;;;;;4980853;28;20063;-64
2021/05/18 14:28:54;;;;;;;4.88;3.55;;;;;;;;;;4984078;28;20051;-64
2021/05/18 14:31:39;;;;;;;4.05;3.50;;;;;;;;;;4995120;28;20491;-64
2021/05/18 14:34:25;;;;;;;3.55;3.25;;;;;;;;;;4993658;28;20086;-64
2021/05/18 14:37:10;;;;;;;4.07;3.78;;;;;;;;;;4994767;28;20057;-64
2021/05/18 14:40:03;;;;;;;7.53;4.20;;;;;;;;;;4983733;28;20086;-63
2021/05/18 14:43:26;;;;;;;4.97;4.05;;;;;;;;;;5009430;28;20050;-63
2021/05/18 14:55:29;;;;;;;6.60;5.20;;;;;;;;;;5012695;28;20046;-63
2021/05/18 14:58:16;;;;;;;7.68;6.10;;;;;;;;;;5013038;28;20080;-64
2021/05/18 15:01:01;;;;;;;6.55;5.68;;;;;;;;;;4998229;28;20170;-63
2021/05/18 15:03:46;;;;;;;6.82;5.90;;;;;;;;;;4993292;28;20046;-63
2021/05/18 15:06:32;;;;;;;8.18;7.38;;;;;;;;;;4977523;28;20042;-64
2021/05/18 15:09:17;;;;;;;6.47;5.80;;;;;;;;;;4993134;28;20046;-63
2021/05/18 15:12:03;;;;;;;6.55;5.72;;;;;;;;;;4993165;28;20054;-64
2021/05/18 15:14:48;;;;;;;6.90;6.18;;;;;;;;;;4992979;28;20065;-63
2021/05/18 15:17:33;;;;;;;7.53;6.00;;;;;;;;;;4992995;28;20046;-64
2021/05/18 15:20:19;;;;;;;7.43;5.50;;;;;;;;;;4993175;28;20076;-64
2021/05/18 15:23:04;;;;;;;7.72;6.55;;;;;;;;;;4994407;28;20034;-64
2021/05/18 15:25:49;;;;;;;8.65;7.40;;;;;;;;;;4999467;28;20384;-64
2021/05/18 15:28:34;;;;;;;7.72;6.93;;;;;;;;;;5000368;28;20050;-64
2021/05/18 15:31:19;;;;;;;8.68;7.78;;;;;;;;;;5005554;28;20356;-64
2021/05/18 15:34:06;;;;;;;8.57;7.70;;;;;;;;;;5010520;28;20488;-64
2021/05/18 15:36:51;;;;;;;9.55;7.93;;;;;;;;;;5012346;28;20512;-64
2021/05/18 15:39:36;;;;;;;8.85;7.95;;;;;;;;;;5011946;28;20424;-64
2021/05/18 15:42:22;;;;;;;10.05;8.52;;;;;;;;;;5010983;28;20050;-64
2021/05/18 15:45:07;;;;;;;9.07;7.28;;;;;;;;;;5002653;28;20042;-64
2021/05/18 15:47:53;;;;;;;8.95;7.32;;;;;;;;;;4997163;28;20117;-64
2021/05/18 15:50:38;;;;;;;7.65;6.85;;;;;;;;;;5000983;28;20054;-64
2021/05/18 15:53:23;;;;;;;9.73;6.93;;;;;;;;;;5009583;28;20471;-64
2021/05/18 15:56:08;;;;;;;7.80;6.47;;;;;;;;;;4997083;28;20043;-64
2021/05/18 15:58:54;;;;;;;7.03;6.30;;;;;;;;;;4990999;28;20058;-64
2021/05/18 16:01:40;;;;;;;7.22;6.53;;;;;;;;;;4991814;28;20042;-64
2021/05/18 16:04:25;;;;;;;7.35;6.65;;;;;;;;;;4992795;28;20053;-64
2021/05/18 16:07:13;;;;;;;7.00;6.40;;;;;;;;;;5010385;28;20045;-64
2021/05/18 16:09:59;;;;;;;7.90;6.80;;;;;;;;;;5011725;28;20033;-64
2021/05/18 16:12:44;;;;;;;9.63;7.45;;;;;;;;;;5010418;28;20048;-64
2021/05/18 16:15:30;;;;;;;8.00;6.85;;;;;;;;;;5012023;28;20116;-64
2021/05/18 16:18:15;;;;;;;7.88;6.30;;;;;;;;;;5012022;28;20054;-64
2021/05/18 16:21:00;;;;;;;7.70;6.65;;;;;;;;;;5010065;28;20138;-64
2021/05/18 16:23:47;;;;;;;7.60;6.72;;;;;;;;;;5012120;28;20046;-64
2021/05/18 16:26:33;;;;;;;9.85;7.90;;;;;;;;;;5010242;28;20492;-64
2021/05/18 16:29:18;;;;;;;6.88;6.20;;;;;;;;;;5012007;28;20191;-64
2021/05/18 16:32:04;;;;;;;8.18;7.38;;;;;;;;;;5011977;28;20443;-64
2021/05/18 16:34:49;;;;;;;6.80;6.20;;;;;;;;;;4996227;28;20046;-64
2021/05/18 16:37:35;;;;;;;7.85;7.05;;;;;;;;;;4992509;28;20058;-64
2021/05/18 16:40:20;;;;;;;8.43;6.47;;;;;;;;;;4996355;28;20050;-64
2021/05/18 16:43:07;;;;;;;8.60;7.13;;;;;;;;;;5011684;28;20492;-64
2021/05/18 16:45:52;;;;;;;6.65;6.05;;;;;;;;;;5012007;28;20419;-64
2021/05/18 16:48:37;;;;;;;6.47;5.85;;;;;;;;;;4998217;28;20045;-64
2021/05/18 16:51:23;;;;;;;9.75;6.40;;;;;;;;;;4999191;28;20050;-64
2021/05/18 16:54:09;;;;;;;7.10;6.40;;;;;;;;;;4982603;28;20051;-64
2021/05/18 16:56:54;;;;;;;6.47;5.85;;;;;;;;;;4992037;28;20424;-64
2021/05/18 16:59:40;;;;;;;4.95;3.75;;;;;;;;;;5005444;28;20086;-64
2021/05/18 17:02:25;;;;;;;2.28;2.08;;;;;;;;;;5011828;28;20050;-64
2021/05/18 17:05:12;;;;;;;2.38;1.90;;;;;;;;;;4996512;28;20119;-64
2021/05/18 17:08:02;;;;;;;3.60;2.45;;;;;;;;;;4991982;28;20042;-64
2021/05/18 17:10:47;;;;;;;7.72;6.72;;;;;;;;;;4992840;28;20046;-64
2021/05/18 17:13:33;;;;;;;8.57;6.88;;;;;;;;;;4986220;28;20047;-64
2021/05/18 17:16:18;;;;;;;7.65;6.57;;;;;;;;;;4974064;28;20117;-64
2021/05/18 17:19:03;;;;;;;5.47;3.92;;;;;;;;;;5002930;28;20062;-64
2021/05/18 17:21:48;;;;;;;9.18;6.95;;;;;;;;;;5011869;28;20488;-64
2021/05/18 17:24:34;;;;;;;6.85;6.25;;;;;;;;;;5009237;28;20046;-64
2021/05/18 17:27:19;;;;;;;8.60;7.05;;;;;;;;;;4993033;28;20046;-64
2021/05/18 17:30:06;;;;;;;7.80;6.97;;;;;;;;;;4990567;28;20125;-64
2021/05/18 17:32:51;;;;;;;7.65;6.85;;;;;;;;;;5007112;28;20058;-63
2021/05/18 17:35:36;;;;;;;9.52;8.23;;;;;;;;;;5011825;28;20050;-64
2021/05/18 17:38:22;;;;;;;11.05;9.52;;;;;;;;;;5009164;28;20046;-64
2021/05/18 17:41:07;;;;;;;11.80;10.48;;;;;;;;;;4993139;28;20042;-63
2021/05/18 17:43:56;;;;;;;13.32;10.90;;;;;;;;;;4992675;28;20412;-63
2021/05/18 17:46:41;;;;;;;14.35;12.38;;;;;;;;;;4978747;28;20071;-64
2021/05/18 17:49:26;;;;;;;13.00;11.70;;;;;;;;;;4992636;28;20054;-64
2021/05/18 17:52:11;;;;;;;13.82;11.98;;;;;;;;;;4996598;28;20120;-64
2021/05/18 17:54:57;;;;;;;12.70;11.50;;;;;;;;;;4992435;28;20042;-64
2021/05/18 17:57:42;;;;;;;13.73;12.43;;;;;;;;;;4986425;28;20496;-64
2021/05/18 18:00:28;;;;;;;11.80;10.60;;;;;;;;;;4978776;28;20500;-64
2021/05/18 18:03:13;;;;;;;15.20;12.30;;;;;;;;;;4980160;28;20046;-64
2021/05/18 18:05:58;;;;;;;7.50;6.50;;;;;;;;;;4984610;28;20038;-64
2021/05/18 18:08:45;;;;;;;5.65;3.97;;;;;;;;;;4977590;28;20138;-64
2021/05/18 18:11:30;;;;;;;3.47;3.10;;;;;;;;;;4980709;28;20050;-64
2021/05/18 18:14:15;;;;;;;4.97;2.70;;;;;;;;;;4973346;28;20050;-64
2021/05/18 18:17:01;;;;;;;4.43;2.45;;;;;;;;;;4958464;28;20409;-63
2021/05/18 18:19:47;;;;;;;2.47;2.03;;;;;;;;;;5006750;28;20524;-64
2021/05/18 18:22:32;;;;;;;3.47;2.15;;;;;;;;;;5011384;28;20125;-64
2021/05/18 18:25:17;;;;;;;3.78;2.45;;;;;;;;;;5006094;28;20062;-64
2021/05/18 18:28:03;;;;;;;3.67;2.78;;;;;;;;;;4992221;28;20046;-64
2021/05/18 18:30:48;;;;;;;3.35;2.80;;;;;;;;;;4991585;28;20046;-64
2021/05/18 18:33:34;;;;;;;4.78;2.88;;;;;;;;;;5008128;28;20049;-63
2021/05/18 18:36:19;;;;;;;3.95;2.83;;;;;;;;;;5011853;28;20105;-64
2021/05/18 18:39:04;;;;;;;5.05;2.35;;;;;;;;;;5003848;28;20098;-63
2021/05/18 18:41:50;;;;;;;3.85;2.33;;;;;;;;;;4989509;28;20492;-63
2021/05/18 18:44:35;;;;;;;4.25;2.95;;;;;;;;;;4991408;28;20050;-63
2021/05/18 18:47:20;;;;;;;3.90;2.97;;;;;;;;;;4993014;28;20525;-63
2021/05/18 18:50:09;;;;;;;5.68;3.30;;;;;;;;;;4991243;28;20141;-63
2021/05/18 18:53:19;;;;;;;4.75;3.78;;;;;;;;;;4991997;28;20384;-64
2021/05/18 18:56:00;;;;;;;6.97;3.72;;;;;;;;;;4991948;28;20042;-63
2021/05/18 18:58:45;;;;;;;9.25;4.13;;;;;;;;;;4990797;28;20046;-64
2021/05/18 19:01:34;;;;;;;6.53;4.53;;;;;;;;;;5003728;28;20087;-64
2021/05/18 19:04:27;;;;;;;5.97;4.20;;;;;;;;;;4998981;28;20425;-64
2021/05/18 19:07:38;;;;;;;5.75;4.55;;;;;;;;;;4992573;28;20424;-63
2021/05/18 19:10:33;;;;;;;6.93;4.50;;;;;;;;;;4992327;28;20047;-64
2021/05/18 19:13:18;;;;;;;6.60;4.25;;;;;;;;;;5011142;28;20038;-63
2021/05/18 19:16:04;;;;;;;6.10;4.60;;;;;;;;;;5008506;28;20050;-63
2021/05/18 19:18:51;;;;;;;6.20;5.18;;;;;;;;;;4990850;28;20510;-64
2021/05/18 19:21:36;;;;;;;9.07;7.25;;;;;;;;;;4990129;28;20047;-64
2021/05/18 19:24:21;;;;;;;10.10;6.82;;;;;;;;;;5009587;28;20132;-63
2021/05/18 19:27:06;;;;;;;9.80;6.85;;;;;;;;;;4992880;28;20082;-64
2021/05/18 19:29:53;;;;;;;9.27;6.00;;;;;;;;;;4997698;28;20096;-64
2021/05/18 19:32:38;;;;;;;8.18;6.60;;;;;;;;;;5010389;28;20181;-64
2021/05/18 19:50:22;;;;;;;6.72;5.40;;;;;;;;;;4990951;28;20061;-64
2021/05/18 19:53:12;;;;;;;8.25;4.45;;;;;;;;;;4990687;28;20053;-64
2021/05/18 19:56:12;;;;;;;6.90;4.63;;;;;;;;;;4990806;28;20046;-63
2021/05/18 20:20:16;;;;;;;6.00;5.25;;;;;;;;;;4989933;28;20073;-63
2021/05/18 20:23:01;;;;;;;8.82;5.95;;;;;;;;;;4988103;28;20459;-63
2021/05/18 20:25:46;;;;;;;7.40;6.07;;;;;;;;;;4989911;28;20043;-63
2021/05/18 20:28:33;;;;;;;7.93;6.45;;;;;;;;;;4980100;28;20042;-63
2021/05/18 20:31:19;;;;;;;7.53;6.70;;;;;;;;;;4970763;28;20625;-63
2021/05/18 20:40:14;;;;;;;9.60;6.35;;;;;;;;;;4970644;28;20489;-63
2021/05/18 20:43:00;;;;;;;7.85;6.20;;;;;;;;;;4970938;28;20257;-63
2021/05/18 20:45:45;;;;;;;9.82;6.60;;;;;;;;;;4971987;28;20054;-63
2021/05/18 20:48:30;;;;;;;11.15;7.07;;;;;;;;;;4985259;28;20396;-62
2021/05/18 20:51:16;;;;;;;10.77;7.05;;;;;;;;;;4993722;28;20042;-63
2021/05/18 20:54:02;;;;;;;10.68;7.93;;;;;;;;;;4994034;28;20382;-62
2021/05/18 20:56:47;;;;;;;10.70;8.00;;;;;;;;;;5012843;28;20054;-63
2021/05/18 20:59:32;;;;;;;12.15;8.45;;;;;;;;;;5012755;28;20456;-62
2021/05/18 21:02:18;;;;;;;7.97;7.15;;;;;;;;;;5012675;28;20456;-63
2021/05/18 21:05:04;;;;;;;10.52;8.43;;;;;;;;;;4993986;28;20077;-63
2021/05/18 21:15:45;;;;;;;14.68;7.93;;;;;;;;;;4985565;28;20531;-63
2021/05/18 21:17:07;;;;;;;10.93;8.52;;;;;;;;;;4994403;28;20049;-63
2021/05/18 21:19:52;;;;;;;12.13;9.25;;;;;;;;;;4992871;28;20145;-63
2021/05/18 21:22:38;;;;;;;9.18;7.68;;;;;;;;;;5000682;28;20050;-63
2021/05/18 21:25:23;;;;;;;14.13;9.10;;;;;;;;;;5013030;28;20037;-63
2021/05/18 21:28:08;;;;;;;14.50;9.52;;;;;;;;;;5012814;28;20533;-63
2021/05/18 21:30:54;;;;;;;14.77;10.13;;;;;;;;;;5012394;28;20444;-63
2021/05/18 21:33:39;;;;;;;14.90;10.52;;;;;;;;;;5010744;28;20042;-63
2021/05/18 21:36:24;;;;;;;16.02;11.40;;;;;;;;;;5012975;28;20057;-63
2021/05/18 21:39:15;;;;;;;10.98;8.75;;;;;;;;;;5013146;28;20132;-63
2021/05/18 21:42:03;;;;;;;17.10;12.00;;;;;;;;;;5011073;28;20085;-63
2021/05/18 21:44:49;;;;;;;15.80;12.32;;;;;;;;;;5012049;28;20049;-63
2021/05/18 21:47:35;;;;;;;11.85;10.15;;;;;;;;;;5003776;28;20074;-63
2021/05/18 21:50:20;;;;;;;12.60;11.18;;;;;;;;;;4992930;28;20038;-63
2021/05/18 21:53:05;;;;;;;22.02;13.20;;;;;;;;;;4992947;28;20046;-63
2021/05/18 21:55:50;;;;;;;17.08;12.85;;;;;;;;;;4995733;28;20415;-63